Sunset Beach, NC

11:46 PM EDT on August 04, 2015 (GMT -0400)
Sunset Ridge | | Change Station
CLOSE
Current Station
Personal Weather Station
Location: Ocean Isle Beach, NC
Elevation: -7 ft
Nearby Weather Stations

Elev -7 ft 33.90 °N, 78.49 °W | Updated 2 minutes ago

Partly Cloudy
Partly Cloudy
81.1 °F
Feels Like 89 °F
N
4.7
Wind Variable Wind from WSW

Today
High -- | Low -- °F
--% Chance of Precip.
Yesterday
High -- | Low -- °F
Precip. -- in
6:27 AM 8:12 PM
Waning Gibbous, 71% visible
Pressure 29.99 in
Visibility 10.0 miles
Clouds Clear
Heat Index 89 °F
Dew Point 78 °F
Humidity 89%
Rainfall 0.62 in
Snow Depth Not available.
UV 0 out of 12
Pollen 1.30 out of 12
Air Quality Not available.
Flu Activity Not available.
METAR KCRE 050253Z AUTO 22010KT 10SM CLR 28/26 A2998 RMK AO1 SLP154 T02830256 53015

More Conditions Fewer Conditions

Pressure 29.99 in
Visibility 10.0 miles
Clouds Clear
Heat Index 89 °F
Dew Point 78 °F
Humidity 89%
Rainfall 0.62 in
Snow Depth Not available.
UV 0 out of 12
Pollen 1.30 out of 12
Air Quality Not available.
Flu Activity Not available.
METAR KCRE 050253Z AUTO 22010KT 10SM CLR 28/26 A2998 RMK AO1 SLP154 T02830256 53015

More Conditions Fewer Conditions

10-Day Weather Forecast

×

Almanac

Astronomy

Aug. 04, 2015 Rise Set
Actual Time
Civil Twilight
Nautical Twilight
Astronomical Twilight
Moon
Length of Visible Light
Length of Day
Tomorrow will be .
, % of the Moon is Illuminated

Today's Extremes

State Highs State Lows

Community

WunderPhotos

Upload Photos

1,844,089 photos uploaded!

WunderBlogs® & News

Nearby

Air Quality

  Air Quality AQ Index Pollutant
Not available.

Snow Depth

Station Depth Elevation

Earthquake Activity

City Distance Mag. Time & Date
Minimum magnitude displayed is 2.5.

Coastal Water Temperatures

Place Temperature

Stations

Nearby Weather Stations

Station Location Temp. Windchill Dew Point Humidity Wind Precip. Elev Updated Type